sensor_id;sensor_type;location;lat;lon;timestamp;P1;durP1;ratioP1;P2;durP2;ratioP2
54502;SDS011;40411;50.090;21.954;2022-12-08T00:01:38;17.98;;;6.32;;
54502;SDS011;40411;50.090;21.954;2022-12-08T00:04:04;13.63;;;6.68;;
54502;SDS011;40411;50.090;21.954;2022-12-08T00:06:35;16.90;;;6.68;;
54502;SDS011;40411;50.090;21.954;2022-12-08T00:09:23;18.05;;;7.28;;
54502;SDS011;40411;50.090;21.954;2022-12-08T00:14:29;12.18;;;6.30;;
54502;SDS011;40411;50.090;21.954;2022-12-08T00:16:57;14.65;;;6.07;;
54502;SDS011;40411;50.090;21.954;2022-12-08T00:19:24;12.02;;;6.10;;
54502;SDS011;40411;50.090;21.954;2022-12-08T00:21:51;14.35;;;6.50;;
54502;SDS011;40411;50.090;21.954;2022-12-08T00:24:18;16.48;;;6.93;;
54502;SDS011;40411;50.090;21.954;2022-12-08T00:26:45;17.33;;;7.07;;
54502;SDS011;40411;50.090;21.954;2022-12-08T00:29:11;15.32;;;6.90;;
54502;SDS011;40411;50.090;21.954;2022-12-08T00:31:38;19.48;;;7.45;;
54502;SDS011;40411;50.090;21.954;2022-12-08T00:34:04;15.95;;;7.15;;
54502;SDS011;40411;50.090;21.954;2022-12-08T00:36:30;12.73;;;5.72;;
54502;SDS011;40411;50.090;21.954;2022-12-08T00:38:57;16.15;;;7.43;;
54502;SDS011;40411;50.090;21.954;2022-12-08T00:41:23;19.33;;;6.75;;
54502;SDS011;40411;50.090;21.954;2022-12-08T00:44:10;15.88;;;6.47;;
54502;SDS011;40411;50.090;21.954;2022-12-08T00:46:38;15.07;;;7.18;;
54502;SDS011;40411;50.090;21.954;2022-12-08T00:49:04;14.65;;;6.30;;
54502;SDS011;40411;50.090;21.954;2022-12-08T00:51:31;13.98;;;6.75;;
54502;SDS011;40411;50.090;21.954;2022-12-08T00:53:57;18.40;;;7.32;;
54502;SDS011;40411;50.090;21.954;2022-12-08T00:56:23;19.40;;;7.30;;
54502;SDS011;40411;50.090;21.954;2022-12-08T00:58:49;16.15;;;7.07;;
54502;SDS011;40411;50.090;21.954;2022-12-08T01:01:16;14.32;;;6.72;;
54502;SDS011;40411;50.090;21.954;2022-12-08T01:03:42;17.23;;;7.68;;
54502;SDS011;40411;50.090;21.954;2022-12-08T01:06:09;16.23;;;7.55;;
54502;SDS011;40411;50.090;21.954;2022-12-08T01:08:36;15.88;;;6.07;;
54502;SDS011;40411;50.090;21.954;2022-12-08T01:11:03;15.98;;;6.28;;
54502;SDS011;40411;50.090;21.954;2022-12-08T01:13:34;14.15;;;5.93;;
54502;SDS011;40411;50.090;21.954;2022-12-08T01:15:59;15.23;;;6.78;;
54502;SDS011;40411;50.090;21.954;2022-12-08T01:18:26;15.75;;;7.50;;
54502;SDS011;40411;50.090;21.954;2022-12-08T01:20:53;19.25;;;7.07;;
54502;SDS011;40411;50.090;21.954;2022-12-08T01:23:19;15.32;;;6.65;;
54502;SDS011;40411;50.090;21.954;2022-12-08T01:25:44;13.77;;;6.82;;
54502;SDS011;40411;50.090;21.954;2022-12-08T01:28:11;16.38;;;6.10;;
54502;SDS011;40411;50.090;21.954;2022-12-08T01:30:37;15.55;;;6.25;;
54502;SDS011;40411;50.090;21.954;2022-12-08T01:33:04;17.83;;;6.55;;
54502;SDS011;40411;50.090;21.954;2022-12-08T01:35:29;12.45;;;5.75;;
54502;SDS011;40411;50.090;21.954;2022-12-08T01:37:55;13.40;;;5.88;;
54502;SDS011;40411;50.090;21.954;2022-12-08T01:40:21;14.25;;;5.20;;
54502;SDS011;40411;50.090;21.954;2022-12-08T01:42:48;15.52;;;6.75;;
54502;SDS011;40411;50.090;21.954;2022-12-08T01:45:20;14.43;;;6.70;;
54502;SDS011;40411;50.090;21.954;2022-12-08T01:47:50;14.65;;;6.32;;
54502;SDS011;40411;50.090;21.954;2022-12-08T01:50:22;16.65;;;7.38;;
54502;SDS011;40411;50.090;21.954;2022-12-08T01:52:58;16.35;;;6.25;;
54502;SDS011;40411;50.090;21.954;2022-12-08T01:56:14;17.77;;;7.45;;
54502;SDS011;40411;50.090;21.954;2022-12-08T01:58:22;19.70;;;7.43;;
54502;SDS011;40411;50.090;21.954;2022-12-08T02:00:59;16.60;;;7.43;;
54502;SDS011;40411;50.090;21.954;2022-12-08T02:03:30;15.68;;;6.60;;
54502;SDS011;40411;50.090;21.954;2022-12-08T02:06:01;16.02;;;7.32;;
54502;SDS011;40411;50.090;21.954;2022-12-08T02:08:28;9.00;;;4.68;;
54502;SDS011;40411;50.090;21.954;2022-12-08T02:10:55;15.07;;;5.35;;
54502;SDS011;40411;50.090;21.954;2022-12-08T02:13:21;13.50;;;6.15;;
54502;SDS011;40411;50.090;21.954;2022-12-08T02:15:55;15.27;;;6.28;;
54502;SDS011;40411;50.090;21.954;2022-12-08T02:18:42;12.27;;;5.28;;
54502;SDS011;40411;50.090;21.954;2022-12-08T02:21:36;15.02;;;6.10;;
54502;SDS011;40411;50.090;21.954;2022-12-08T02:30:09;16.77;;;6.80;;
54502;SDS011;40411;50.090;21.954;2022-12-08T02:35:29;14.75;;;6.18;;
54502;SDS011;40411;50.090;21.954;2022-12-08T02:43:47;12.50;;;5.70;;
54502;SDS011;40411;50.090;21.954;2022-12-08T02:46:29;16.35;;;6.75;;
54502;SDS011;40411;50.090;21.954;2022-12-08T02:49:05;15.90;;;7.30;;
54502;SDS011;40411;50.090;21.954;2022-12-08T02:51:31;14.05;;;6.18;;
54502;SDS011;40411;50.090;21.954;2022-12-08T02:53:57;17.85;;;6.57;;
54502;SDS011;40411;50.090;21.954;2022-12-08T02:56:37;16.63;;;6.80;;
54502;SDS011;40411;50.090;21.954;2022-12-08T03:02:01;17.23;;;6.03;;
54502;SDS011;40411;50.090;21.954;2022-12-08T03:09:46;16.60;;;7.25;;
54502;SDS011;40411;50.090;21.954;2022-12-08T03:12:31;19.00;;;6.90;;
54502;SDS011;40411;50.090;21.954;2022-12-08T03:15:05;13.65;;;5.90;;
54502;SDS011;40411;50.090;21.954;2022-12-08T03:17:35;16.25;;;7.07;;
54502;SDS011;40411;50.090;21.954;2022-12-08T03:20:07;15.85;;;6.82;;
54502;SDS011;40411;50.090;21.954;2022-12-08T03:22:36;12.02;;;5.60;;
54502;SDS011;40411;50.090;21.954;2022-12-08T03:25:05;15.63;;;6.05;;
54502;SDS011;40411;50.090;21.954;2022-12-08T03:27:34;13.93;;;6.82;;
54502;SDS011;40411;50.090;21.954;2022-12-08T03:30:00;17.23;;;7.18;;
54502;SDS011;40411;50.090;21.954;2022-12-08T03:32:39;15.25;;;6.85;;
54502;SDS011;40411;50.090;21.954;2022-12-08T03:35:18;13.77;;;6.10;;
54502;SDS011;40411;50.090;21.954;2022-12-08T03:37:49;12.82;;;6.00;;
54502;SDS011;40411;50.090;21.954;2022-12-08T03:40:16;16.63;;;6.65;;
54502;SDS011;40411;50.090;21.954;2022-12-08T03:42:44;17.38;;;5.95;;
54502;SDS011;40411;50.090;21.954;2022-12-08T03:45:10;16.02;;;7.07;;
54502;SDS011;40411;50.090;21.954;2022-12-08T03:47:36;14.63;;;5.97;;
54502;SDS011;40411;50.090;21.954;2022-12-08T03:50:02;15.70;;;6.65;;
54502;SDS011;40411;50.090;21.954;2022-12-08T03:52:28;14.40;;;6.72;;
54502;SDS011;40411;50.090;21.954;2022-12-08T03:54:54;15.68;;;6.50;;
54502;SDS011;40411;50.090;21.954;2022-12-08T03:57:20;17.55;;;6.40;;
54502;SDS011;40411;50.090;21.954;2022-12-08T03:59:46;14.68;;;6.75;;
54502;SDS011;40411;50.090;21.954;2022-12-08T04:02:11;24.13;;;10.82;;
54502;SDS011;40411;50.090;21.954;2022-12-08T04:04:37;14.93;;;6.82;;
54502;SDS011;40411;50.090;21.954;2022-12-08T04:07:03;17.27;;;7.30;;
54502;SDS011;40411;50.090;21.954;2022-12-08T04:09:29;14.82;;;7.30;;
54502;SDS011;40411;50.090;21.954;2022-12-08T04:11:55;18.45;;;7.72;;
54502;SDS011;40411;50.090;21.954;2022-12-08T04:14:20;21.65;;;7.93;;
54502;SDS011;40411;50.090;21.954;2022-12-08T04:16:46;18.83;;;8.57;;
54502;SDS011;40411;50.090;21.954;2022-12-08T04:19:12;16.55;;;7.18;;
54502;SDS011;40411;50.090;21.954;2022-12-08T04:21:39;21.08;;;7.88;;
54502;SDS011;40411;50.090;21.954;2022-12-08T04:24:05;17.13;;;7.30;;
54502;SDS011;40411;50.090;21.954;2022-12-08T04:26:31;15.02;;;6.50;;
54502;SDS011;40411;50.090;21.954;2022-12-08T04:28:57;15.10;;;6.72;;
54502;SDS011;40411;50.090;21.954;2022-12-08T04:31:23;17.08;;;6.95;;
54502;SDS011;40411;50.090;21.954;2022-12-08T04:33:48;17.00;;;7.75;;
54502;SDS011;40411;50.090;21.954;2022-12-08T04:36:14;18.88;;;7.05;;
54502;SDS011;40411;50.090;21.954;2022-12-08T04:38:40;19.90;;;7.55;;
54502;SDS011;40411;50.090;21.954;2022-12-08T04:41:06;21.73;;;7.82;;
54502;SDS011;40411;50.090;21.954;2022-12-08T04:43:32;21.85;;;9.07;;
54502;SDS011;40411;50.090;21.954;2022-12-08T04:45:58;19.10;;;8.45;;
54502;SDS011;40411;50.090;21.954;2022-12-08T04:48:23;23.50;;;9.90;;
54502;SDS011;40411;50.090;21.954;2022-12-08T04:50:49;18.17;;;7.30;;
54502;SDS011;40411;50.090;21.954;2022-12-08T04:53:15;21.45;;;9.15;;
54502;SDS011;40411;50.090;21.954;2022-12-08T04:55:42;20.80;;;8.80;;
54502;SDS011;40411;50.090;21.954;2022-12-08T04:58:12;18.15;;;8.10;;
54502;SDS011;40411;50.090;21.954;2022-12-08T05:00:39;14.30;;;7.25;;
54502;SDS011;40411;50.090;21.954;2022-12-08T05:03:06;16.65;;;7.18;;
54502;SDS011;40411;50.090;21.954;2022-12-08T05:05:32;13.52;;;6.93;;
54502;SDS011;40411;50.090;21.954;2022-12-08T05:07:58;17.38;;;6.40;;
54502;SDS011;40411;50.090;21.954;2022-12-08T05:10:24;17.80;;;6.20;;
54502;SDS011;40411;50.090;21.954;2022-12-08T05:12:49;14.98;;;7.53;;
54502;SDS011;40411;50.090;21.954;2022-12-08T05:15:16;15.85;;;6.25;;
54502;SDS011;40411;50.090;21.954;2022-12-08T05:17:41;16.35;;;7.50;;
54502;SDS011;40411;50.090;21.954;2022-12-08T05:20:07;15.95;;;6.78;;
54502;SDS011;40411;50.090;21.954;2022-12-08T05:22:34;18.00;;;7.72;;
54502;SDS011;40411;50.090;21.954;2022-12-08T05:25:00;16.77;;;7.75;;
54502;SDS011;40411;50.090;21.954;2022-12-08T05:27:25;16.08;;;7.47;;
54502;SDS011;40411;50.090;21.954;2022-12-08T05:29:51;18.13;;;6.78;;
54502;SDS011;40411;50.090;21.954;2022-12-08T05:32:17;19.05;;;7.60;;
54502;SDS011;40411;50.090;21.954;2022-12-08T05:34:43;18.65;;;7.20;;
54502;SDS011;40411;50.090;21.954;2022-12-08T05:37:09;18.50;;;7.35;;
54502;SDS011;40411;50.090;21.954;2022-12-08T05:39:35;16.88;;;7.70;;
54502;SDS011;40411;50.090;21.954;2022-12-08T05:42:00;15.90;;;6.43;;
54502;SDS011;40411;50.090;21.954;2022-12-08T05:44:27;15.88;;;6.72;;
54502;SDS011;40411;50.090;21.954;2022-12-08T05:46:52;17.02;;;7.80;;
54502;SDS011;40411;50.090;21.954;2022-12-08T05:49:18;18.67;;;7.65;;
54502;SDS011;40411;50.090;21.954;2022-12-08T05:51:44;16.40;;;8.30;;
54502;SDS011;40411;50.090;21.954;2022-12-08T05:54:10;18.13;;;7.85;;
54502;SDS011;40411;50.090;21.954;2022-12-08T05:56:36;16.52;;;7.28;;
54502;SDS011;40411;50.090;21.954;2022-12-08T05:59:04;16.88;;;6.28;;
54502;SDS011;40411;50.090;21.954;2022-12-08T06:01:32;22.52;;;8.52;;
54502;SDS011;40411;50.090;21.954;2022-12-08T06:04:00;15.55;;;7.55;;
54502;SDS011;40411;50.090;21.954;2022-12-08T06:06:27;18.77;;;8.65;;
54502;SDS011;40411;50.090;21.954;2022-12-08T06:08:54;17.67;;;7.13;;
54502;SDS011;40411;50.090;21.954;2022-12-08T06:11:27;18.27;;;8.18;;
54502;SDS011;40411;50.090;21.954;2022-12-08T06:13:56;21.38;;;6.70;;
54502;SDS011;40411;50.090;21.954;2022-12-08T06:16:22;17.23;;;7.63;;
54502;SDS011;40411;50.090;21.954;2022-12-08T06:18:50;15.40;;;7.60;;
54502;SDS011;40411;50.090;21.954;2022-12-08T06:21:16;17.17;;;7.40;;
54502;SDS011;40411;50.090;21.954;2022-12-08T06:23:46;17.58;;;6.85;;
54502;SDS011;40411;50.090;21.954;2022-12-08T06:26:13;20.92;;;9.02;;
54502;SDS011;40411;50.090;21.954;2022-12-08T06:28:40;17.73;;;7.65;;
54502;SDS011;40411;50.090;21.954;2022-12-08T06:31:07;18.15;;;8.23;;
54502;SDS011;40411;50.090;21.954;2022-12-08T06:33:36;16.42;;;6.82;;
54502;SDS011;40411;50.090;21.954;2022-12-08T06:36:03;18.55;;;8.13;;
54502;SDS011;40411;50.090;21.954;2022-12-08T06:38:30;18.77;;;8.18;;
54502;SDS011;40411;50.090;21.954;2022-12-08T06:40:56;15.15;;;6.68;;
54502;SDS011;40411;50.090;21.954;2022-12-08T06:43:23;20.75;;;7.90;;
54502;SDS011;40411;50.090;21.954;2022-12-08T06:45:49;17.73;;;7.72;;
54502;SDS011;40411;50.090;21.954;2022-12-08T06:48:16;19.73;;;7.95;;
54502;SDS011;40411;50.090;21.954;2022-12-08T06:50:43;15.02;;;7.60;;
54502;SDS011;40411;50.090;21.954;2022-12-08T06:53:15;14.82;;;6.53;;
54502;SDS011;40411;50.090;21.954;2022-12-08T06:55:42;17.93;;;6.73;;
54502;SDS011;40411;50.090;21.954;2022-12-08T06:58:09;17.13;;;7.82;;
54502;SDS011;40411;50.090;21.954;2022-12-08T07:00:36;15.98;;;7.55;;
54502;SDS011;40411;50.090;21.954;2022-12-08T07:03:02;18.42;;;8.45;;
54502;SDS011;40411;50.090;21.954;2022-12-08T07:05:33;18.27;;;7.53;;
54502;SDS011;40411;50.090;21.954;2022-12-08T07:08:00;24.55;;;8.00;;
54502;SDS011;40411;50.090;21.954;2022-12-08T07:10:27;34.00;;;11.57;;
54502;SDS011;40411;50.090;21.954;2022-12-08T07:12:53;28.77;;;10.60;;
54502;SDS011;40411;50.090;21.954;2022-12-08T07:15:19;21.58;;;9.23;;
54502;SDS011;40411;50.090;21.954;2022-12-08T07:17:46;24.02;;;9.02;;
54502;SDS011;40411;50.090;21.954;2022-12-08T07:20:12;26.77;;;9.95;;
54502;SDS011;40411;50.090;21.954;2022-12-08T07:22:39;15.82;;;9.05;;
54502;SDS011;40411;50.090;21.954;2022-12-08T07:25:05;26.38;;;12.43;;
54502;SDS011;40411;50.090;21.954;2022-12-08T07:27:31;28.55;;;13.07;;
54502;SDS011;40411;50.090;21.954;2022-12-08T07:29:57;28.42;;;11.20;;
54502;SDS011;40411;50.090;21.954;2022-12-08T07:32:23;23.27;;;10.27;;
54502;SDS011;40411;50.090;21.954;2022-12-08T07:34:49;30.90;;;11.82;;
54502;SDS011;40411;50.090;21.954;2022-12-08T07:37:15;25.58;;;9.75;;
54502;SDS011;40411;50.090;21.954;2022-12-08T07:39:42;22.15;;;11.00;;
54502;SDS011;40411;50.090;21.954;2022-12-08T07:42:09;25.75;;;10.95;;
54502;SDS011;40411;50.090;21.954;2022-12-08T07:44:36;19.75;;;9.68;;
54502;SDS011;40411;50.090;21.954;2022-12-08T07:47:02;24.88;;;12.02;;
54502;SDS011;40411;50.090;21.954;2022-12-08T07:49:28;21.73;;;8.65;;
54502;SDS011;40411;50.090;21.954;2022-12-08T07:51:54;24.65;;;9.77;;
54502;SDS011;40411;50.090;21.954;2022-12-08T07:54:20;19.65;;;9.18;;
54502;SDS011;40411;50.090;21.954;2022-12-08T07:56:46;20.13;;;9.90;;
54502;SDS011;40411;50.090;21.954;2022-12-08T07:59:12;27.00;;;11.52;;
54502;SDS011;40411;50.090;21.954;2022-12-08T08:01:39;26.48;;;10.85;;
54502;SDS011;40411;50.090;21.954;2022-12-08T08:04:05;19.70;;;9.32;;
54502;SDS011;40411;50.090;21.954;2022-12-08T08:06:31;21.98;;;10.80;;
54502;SDS011;40411;50.090;21.954;2022-12-08T08:08:58;16.67;;;8.05;;
54502;SDS011;40411;50.090;21.954;2022-12-08T08:11:24;17.67;;;7.55;;
54502;SDS011;40411;50.090;21.954;2022-12-08T08:13:51;16.63;;;8.52;;
54502;SDS011;40411;50.090;21.954;2022-12-08T08:16:18;18.42;;;8.93;;
54502;SDS011;40411;50.090;21.954;2022-12-08T08:18:45;16.25;;;6.97;;
54502;SDS011;40411;50.090;21.954;2022-12-08T08:21:14;15.75;;;7.90;;
54502;SDS011;40411;50.090;21.954;2022-12-08T08:23:40;17.73;;;8.23;;
54502;SDS011;40411;50.090;21.954;2022-12-08T08:26:06;21.20;;;7.95;;
54502;SDS011;40411;50.090;21.954;2022-12-08T08:28:32;16.67;;;8.18;;
54502;SDS011;40411;50.090;21.954;2022-12-08T08:30:59;15.30;;;6.95;;
54502;SDS011;40411;50.090;21.954;2022-12-08T08:33:25;19.17;;;8.52;;
54502;SDS011;40411;50.090;21.954;2022-12-08T08:35:52;18.83;;;9.10;;
54502;SDS011;40411;50.090;21.954;2022-12-08T08:38:18;14.32;;;7.40;;
54502;SDS011;40411;50.090;21.954;2022-12-08T08:40:45;16.90;;;8.18;;
54502;SDS011;40411;50.090;21.954;2022-12-08T08:43:11;14.68;;;7.50;;
54502;SDS011;40411;50.090;21.954;2022-12-08T08:45:56;14.50;;;6.85;;
54502;SDS011;40411;50.090;21.954;2022-12-08T08:48:24;16.52;;;7.95;;
54502;SDS011;40411;50.090;21.954;2022-12-08T08:50:51;13.70;;;7.80;;
54502;SDS011;40411;50.090;21.954;2022-12-08T08:53:18;14.20;;;7.53;;
54502;SDS011;40411;50.090;21.954;2022-12-08T08:55:44;13.63;;;6.57;;
54502;SDS011;40411;50.090;21.954;2022-12-08T08:58:10;13.98;;;6.47;;
54502;SDS011;40411;50.090;21.954;2022-12-08T09:00:37;15.25;;;7.53;;
54502;SDS011;40411;50.090;21.954;2022-12-08T09:03:03;15.55;;;6.88;;
54502;SDS011;40411;50.090;21.954;2022-12-08T09:05:33;17.42;;;8.02;;
54502;SDS011;40411;50.090;21.954;2022-12-08T09:07:59;14.43;;;7.78;;
54502;SDS011;40411;50.090;21.954;2022-12-08T09:10:26;14.55;;;6.55;;
54502;SDS011;40411;50.090;21.954;2022-12-08T09:12:52;16.85;;;6.75;;
54502;SDS011;40411;50.090;21.954;2022-12-08T09:15:18;16.70;;;7.60;;
54502;SDS011;40411;50.090;21.954;2022-12-08T09:17:45;14.25;;;7.32;;
54502;SDS011;40411;50.090;21.954;2022-12-08T09:20:12;15.80;;;8.23;;
54502;SDS011;40411;50.090;21.954;2022-12-08T09:22:38;14.57;;;7.93;;
54502;SDS011;40411;50.090;21.954;2022-12-08T09:25:04;17.42;;;7.10;;
54502;SDS011;40411;50.090;21.954;2022-12-08T09:27:30;13.82;;;7.43;;
54502;SDS011;40411;50.090;21.954;2022-12-08T09:29:58;14.30;;;6.32;;
54502;SDS011;40411;50.090;21.954;2022-12-08T09:32:24;15.02;;;7.38;;
54502;SDS011;40411;50.090;21.954;2022-12-08T09:34:53;15.55;;;7.63;;
54502;SDS011;40411;50.090;21.954;2022-12-08T09:37:19;15.75;;;7.70;;
54502;SDS011;40411;50.090;21.954;2022-12-08T09:39:47;13.57;;;7.05;;
54502;SDS011;40411;50.090;21.954;2022-12-08T09:42:13;12.93;;;6.80;;
54502;SDS011;40411;50.090;21.954;2022-12-08T09:47:32;11.93;;;6.40;;
54502;SDS011;40411;50.090;21.954;2022-12-08T09:50:04;14.43;;;6.78;;
54502;SDS011;40411;50.090;21.954;2022-12-08T09:52:40;14.23;;;7.00;;
54502;SDS011;40411;50.090;21.954;2022-12-08T09:55:15;16.00;;;7.38;;
54502;SDS011;40411;50.090;21.954;2022-12-08T09:58:03;14.35;;;7.18;;
54502;SDS011;40411;50.090;21.954;2022-12-08T10:00:39;15.00;;;7.38;;
54502;SDS011;40411;50.090;21.954;2022-12-08T10:03:08;13.45;;;6.35;;
54502;SDS011;40411;50.090;21.954;2022-12-08T10:05:40;14.10;;;6.90;;
54502;SDS011;40411;50.090;21.954;2022-12-08T10:08:18;12.48;;;6.65;;
54502;SDS011;40411;50.090;21.954;2022-12-08T10:10:55;16.35;;;6.90;;
54502;SDS011;40411;50.090;21.954;2022-12-08T10:13:28;14.90;;;7.33;;
54502;SDS011;40411;50.090;21.954;2022-12-08T10:16:13;15.48;;;7.80;;
54502;SDS011;40411;50.090;21.954;2022-12-08T10:18:40;14.10;;;6.85;;
54502;SDS011;40411;50.090;21.954;2022-12-08T10:21:12;14.15;;;6.85;;
54502;SDS011;40411;50.090;21.954;2022-12-08T10:23:43;15.48;;;6.88;;
54502;SDS011;40411;50.090;21.954;2022-12-08T10:26:14;14.93;;;7.30;;
54502;SDS011;40411;50.090;21.954;2022-12-08T10:28:47;17.90;;;8.02;;
54502;SDS011;40411;50.090;21.954;2022-12-08T10:31:24;12.88;;;6.03;;
54502;SDS011;40411;50.090;21.954;2022-12-08T10:34:00;17.55;;;7.75;;
54502;SDS011;40411;50.090;21.954;2022-12-08T10:39:39;14.77;;;6.13;;
54502;SDS011;40411;50.090;21.954;2022-12-08T10:47:42;21.70;;;11.93;;
54502;SDS011;40411;50.090;21.954;2022-12-08T10:50:40;14.98;;;8.40;;
54502;SDS011;40411;50.090;21.954;2022-12-08T10:53:14;24.42;;;10.75;;
54502;SDS011;40411;50.090;21.954;2022-12-08T10:58:39;16.53;;;7.43;;
54502;SDS011;40411;50.090;21.954;2022-12-08T11:03:53;11.50;;;5.63;;
54502;SDS011;40411;50.090;21.954;2022-12-08T11:06:24;12.32;;;5.80;;
54502;SDS011;40411;50.090;21.954;2022-12-08T11:08:59;12.85;;;6.53;;
54502;SDS011;40411;50.090;21.954;2022-12-08T11:14:47;12.95;;;5.47;;
54502;SDS011;40411;50.090;21.954;2022-12-08T11:17:26;13.77;;;6.38;;
54502;SDS011;40411;50.090;21.954;2022-12-08T11:20:02;10.80;;;5.40;;
54502;SDS011;40411;50.090;21.954;2022-12-08T11:22:50;15.55;;;7.35;;
54502;SDS011;40411;50.090;21.954;2022-12-08T11:25:19;17.02;;;6.47;;
54502;SDS011;40411;50.090;21.954;2022-12-08T11:27:49;16.25;;;6.25;;
54502;SDS011;40411;50.090;21.954;2022-12-08T11:30:19;28.70;;;9.52;;
54502;SDS011;40411;50.090;21.954;2022-12-08T11:32:50;75.15;;;23.00;;
54502;SDS011;40411;50.090;21.954;2022-12-08T11:35:36;128.07;;;34.80;;
54502;SDS011;40411;50.090;21.954;2022-12-08T11:38:21;16.35;;;7.95;;
54502;SDS011;40411;50.090;21.954;2022-12-08T11:40:51;48.10;;;17.98;;
54502;SDS011;40411;50.090;21.954;2022-12-08T11:45:59;26.42;;;10.65;;
54502;SDS011;40411;50.090;21.954;2022-12-08T11:48:31;24.20;;;11.73;;
54502;SDS011;40411;50.090;21.954;2022-12-08T11:51:18;28.17;;;13.60;;
54502;SDS011;40411;50.090;21.954;2022-12-08T11:54:02;24.35;;;12.88;;
54502;SDS011;40411;50.090;21.954;2022-12-08T11:56:33;17.15;;;7.95;;
54502;SDS011;40411;50.090;21.954;2022-12-08T11:59:30;19.75;;;9.98;;
54502;SDS011;40411;50.090;21.954;2022-12-08T12:02:03;18.00;;;8.77;;
54502;SDS011;40411;50.090;21.954;2022-12-08T12:04:38;15.50;;;8.40;;
54502;SDS011;40411;50.090;21.954;2022-12-08T12:18:25;15.85;;;7.18;;
54502;SDS011;40411;50.090;21.954;2022-12-08T12:21:03;15.98;;;7.63;;
54502;SDS011;40411;50.090;21.954;2022-12-08T12:23:38;14.63;;;7.00;;
54502;SDS011;40411;50.090;21.954;2022-12-08T12:26:08;18.60;;;7.10;;
54502;SDS011;40411;50.090;21.954;2022-12-08T12:28:46;17.75;;;8.88;;
54502;SDS011;40411;50.090;21.954;2022-12-08T12:31:18;13.07;;;6.30;;
54502;SDS011;40411;50.090;21.954;2022-12-08T12:33:50;16.15;;;7.68;;
54502;SDS011;40411;50.090;21.954;2022-12-08T12:36:19;18.92;;;8.30;;
54502;SDS011;40411;50.090;21.954;2022-12-08T12:38:48;14.93;;;7.40;;
54502;SDS011;40411;50.090;21.954;2022-12-08T12:41:37;19.38;;;9.15;;
54502;SDS011;40411;50.090;21.954;2022-12-08T13:07:44;22.38;;;9.55;;
54502;SDS011;40411;50.090;21.954;2022-12-08T13:18:18;13.38;;;6.93;;
54502;SDS011;40411;50.090;21.954;2022-12-08T13:20:52;12.38;;;6.03;;
54502;SDS011;40411;50.090;21.954;2022-12-08T13:39:58;17.17;;;7.32;;
54502;SDS011;40411;50.090;21.954;2022-12-08T13:45:15;20.40;;;9.20;;
54502;SDS011;40411;50.090;21.954;2022-12-08T13:47:55;24.25;;;9.57;;
54502;SDS011;40411;50.090;21.954;2022-12-08T13:53:25;23.75;;;11.48;;
54502;SDS011;40411;50.090;21.954;2022-12-08T13:55:54;30.50;;;11.90;;
54502;SDS011;40411;50.090;21.954;2022-12-08T13:58:26;52.17;;;22.00;;
54502;SDS011;40411;50.090;21.954;2022-12-08T14:01:11;80.20;;;30.33;;
54502;SDS011;40411;50.090;21.954;2022-12-08T14:03:51;58.78;;;20.38;;
54502;SDS011;40411;50.090;21.954;2022-12-08T14:08:59;25.42;;;11.02;;
54502;SDS011;40411;50.090;21.954;2022-12-08T14:14:11;22.98;;;10.00;;
54502;SDS011;40411;50.090;21.954;2022-12-08T14:16:43;31.05;;;10.65;;
54502;SDS011;40411;50.090;21.954;2022-12-08T14:19:33;52.53;;;17.73;;
54502;SDS011;40411;50.090;21.954;2022-12-08T14:22:00;46.42;;;19.90;;
54502;SDS011;40411;50.090;21.954;2022-12-08T14:24:33;24.65;;;11.40;;
54502;SDS011;40411;50.090;21.954;2022-12-08T14:27:00;45.53;;;18.50;;
54502;SDS011;40411;50.090;21.954;2022-12-08T14:29:32;32.88;;;14.02;;
54502;SDS011;40411;50.090;21.954;2022-12-08T14:32:00;30.98;;;14.90;;
54502;SDS011;40411;50.090;21.954;2022-12-08T14:34:26;36.97;;;19.00;;
54502;SDS011;40411;50.090;21.954;2022-12-08T14:36:52;25.73;;;13.48;;
54502;SDS011;40411;50.090;21.954;2022-12-08T14:39:19;30.58;;;14.57;;
54502;SDS011;40411;50.090;21.954;2022-12-08T14:42:00;30.63;;;13.30;;
54502;SDS011;40411;50.090;21.954;2022-12-08T14:44:29;27.45;;;13.60;;
54502;SDS011;40411;50.090;21.954;2022-12-08T14:47:07;52.00;;;16.90;;
54502;SDS011;40411;50.090;21.954;2022-12-08T14:49:38;59.88;;;29.90;;
54502;SDS011;40411;50.090;21.954;2022-12-08T14:52:08;35.95;;;14.05;;
54502;SDS011;40411;50.090;21.954;2022-12-08T14:54:36;43.85;;;20.13;;
54502;SDS011;40411;50.090;21.954;2022-12-08T14:57:04;51.50;;;23.05;;
54502;SDS011;40411;50.090;21.954;2022-12-08T14:59:32;41.75;;;18.13;;
54502;SDS011;40411;50.090;21.954;2022-12-08T15:04:39;51.35;;;22.58;;
54502;SDS011;40411;50.090;21.954;2022-12-08T15:09:38;44.45;;;18.60;;
54502;SDS011;40411;50.090;21.954;2022-12-08T15:15:22;73.25;;;24.15;;
54502;SDS011;40411;50.090;21.954;2022-12-08T15:17:41;89.40;;;33.35;;
54502;SDS011;40411;50.090;21.954;2022-12-08T15:20:38;77.63;;;28.35;;
54502;SDS011;40411;50.090;21.954;2022-12-08T15:23:18;91.05;;;30.52;;
54502;SDS011;40411;50.090;21.954;2022-12-08T15:25:48;99.47;;;35.83;;
54502;SDS011;40411;50.090;21.954;2022-12-08T15:28:14;70.40;;;26.13;;
54502;SDS011;40411;50.090;21.954;2022-12-08T15:30:44;61.65;;;23.50;;
54502;SDS011;40411;50.090;21.954;2022-12-08T15:33:10;120.43;;;41.65;;
54502;SDS011;40411;50.090;21.954;2022-12-08T15:35:37;91.97;;;32.85;;
54502;SDS011;40411;50.090;21.954;2022-12-08T15:38:02;87.85;;;33.40;;
54502;SDS011;40411;50.090;21.954;2022-12-08T15:40:29;84.00;;;33.40;;
54502;SDS011;40411;50.090;21.954;2022-12-08T15:42:55;64.10;;;26.38;;
54502;SDS011;40411;50.090;21.954;2022-12-08T15:45:27;83.07;;;37.97;;
54502;SDS011;40411;50.090;21.954;2022-12-08T15:47:56;85.20;;;34.05;;
54502;SDS011;40411;50.090;21.954;2022-12-08T15:50:22;71.22;;;34.75;;
54502;SDS011;40411;50.090;21.954;2022-12-08T15:52:49;54.83;;;26.75;;
54502;SDS011;40411;50.090;21.954;2022-12-08T15:55:19;54.63;;;24.15;;
54502;SDS011;40411;50.090;21.954;2022-12-08T15:57:46;51.00;;;24.17;;
54502;SDS011;40411;50.090;21.954;2022-12-08T16:02:47;59.35;;;26.58;;
54502;SDS011;40411;50.090;21.954;2022-12-08T16:05:14;53.20;;;23.13;;
54502;SDS011;40411;50.090;21.954;2022-12-08T16:07:39;67.38;;;29.15;;
54502;SDS011;40411;50.090;21.954;2022-12-08T16:10:06;61.92;;;24.48;;
54502;SDS011;40411;50.090;21.954;2022-12-08T16:12:34;57.00;;;26.02;;
54502;SDS011;40411;50.090;21.954;2022-12-08T16:15:19;84.32;;;29.95;;
54502;SDS011;40411;50.090;21.954;2022-12-08T16:17:44;82.82;;;28.73;;
54502;SDS011;40411;50.090;21.954;2022-12-08T16:20:12;81.57;;;33.22;;
54502;SDS011;40411;50.090;21.954;2022-12-08T16:22:39;57.45;;;24.15;;
54502;SDS011;40411;50.090;21.954;2022-12-08T16:25:05;73.07;;;29.77;;
54502;SDS011;40411;50.090;21.954;2022-12-08T16:27:32;75.07;;;30.08;;
54502;SDS011;40411;50.090;21.954;2022-12-08T16:30:03;98.82;;;33.65;;
54502;SDS011;40411;50.090;21.954;2022-12-08T16:32:31;91.25;;;30.85;;
54502;SDS011;40411;50.090;21.954;2022-12-08T16:34:57;85.30;;;30.25;;
54502;SDS011;40411;50.090;21.954;2022-12-08T16:37:48;62.65;;;22.88;;
54502;SDS011;40411;50.090;21.954;2022-12-08T16:40:14;60.50;;;22.85;;
54502;SDS011;40411;50.090;21.954;2022-12-08T16:42:40;53.15;;;20.10;;